Neuburg — 5BQJ2 — position and weather

sailwx.info

Track history (hours):
 
Tides and Currents Weather Stations Pressure Air Temp Water Temp Dewpoint Dewpoint Depression Visibility Wind Speed Wind Dir Waves Ship Positions

Neuburg

Last reported at 2016-May-04 11:31 UTC. Time now 2016-May-04 11:43 UTC.
Position N 44°24' E 008°53'.

Length 142 m; draft 5.5 m.

Type: Cargo ship. MMSI: 212740000.

Date/timePositionNaut miles runAvg speedWind from/ knotsBaromVisibWave heightAir tempDewpointWater temp
2016-May-04 11:31N 44°24' E 008°53'0 0.2
2016-May-04 10:33N 44°24' E 008°53'8 7.9
2016-May-04 09:33N 44°16' E 008°53'1717.2
2016-May-04 08:33N 44°05' E 008°36'1616.4
2016-May-04 07:34N 43°53' E 008°19'3216.1
2016-May-04 05:33N 43°34' E 007°43'1716.7
2016-May-04 04:33N 43°24' E 007°25'1717.0
2016-May-04 03:31N 43°14' E 007°05'18315.3
2016-May-03 15:33N 41°58' E 003°19'1716.6
2016-May-03 14:33N 41°42' E 003°10'3717.8
2016-May-03 12:28N 41°24' E 002°27'1414.5
2016-May-03 11:31N 41°19' E 002°10'3 2.9
2016-May-03 10:33N 41°21' E 002°10'0 0.0
2016-May-03 09:23N 41°21' E 002°10'0 0.0
2016-May-03 08:33N 41°21' E 002°10'0 0.0
2016-May-03 07:33N 41°21' E 002°10'3 1.0
2016-May-03 04:23N 41°18' E 002°11'1113.1
2016-May-03 03:33N 41°08' E 002°06'1515.4
2016-May-03 02:33N 40°54' E 001°56'1515.5
2016-May-03 01:33N 40°40' E 001°47'1514.9
2016-May-03 00:33N 40°27' E 001°38'1615.6
2016-May-02 23:33N 40°13' E 001°29'1615.6
2016-May-02 22:33N 39°60' E 001°19'6615.4
2016-May-02 18:15N 39°01' E 000°40'6714.2
2016-May-02 13:33N 38°19' W 000°26'6 0.6
2016-May-02 04:33N 38°13' W 000°25'1514.8
2016-May-02 03:33N 37°58' W 000°25'1615.7
2016-May-02 02:33N 37°43' W 000°29'1515.0
2016-May-02 01:33N 37°29' W 000°36'1615.7
2016-May-02 00:33N 37°18' W 000°50'22516.0
2016-May-01 10:29N 35°59' W 005°12'65016.1
2016-Apr-29 18:12N 29°11' W 015°12'1116.7
2016-Apr-29 17:31N 29°03' W 015°22'1617.0
2016-Apr-29 16:33N 28°53' W 015°36'1717.0
2016-Apr-29 15:33N 28°42' W 015°51'1716.7
2016-Apr-29 14:33N 28°31' W 016°05'8 1.8
2016-Apr-29 10:18N 28°29' W 016°13'0 0.0
2016-Apr-29 09:06N 28°29' W 016°13'0 0.0
2016-Apr-29 08:33N 28°29' W 016°13'0 0.0
2016-Apr-28 23:11N 28°29' W 016°13'5 7.4
2016-Apr-28 22:33N 28°27' W 016°09'1615.6
2016-Apr-28 21:33N 28°22' W 015°52'1616.1
2016-Apr-28 20:33N 28°16' W 015°35'1313.4
2016-Apr-28 19:33N 28°07' W 015°24'2 1.5
2016-Apr-28 18:32N 28°08' W 015°25'0 0.0
2016-Apr-28 17:32N 28°08' W 015°25'0 0.0
2016-Apr-28 16:32N 28°08' W 015°25'0 0.0
2016-Apr-28 15:31N 28°08' W 015°25'0 0.0
2016-Apr-28 14:31N 28°08' W 015°25'83 5.1
2016-Apr-27 22:14N 28°46' W 014°01'1012.6
2016-Apr-27 21:27N 28°49' W 013°50'1112.6
2016-Apr-27 20:34N 28°53' W 013°38'7 7.0
2016-Apr-27 19:30N 28°58' W 013°32'0 0.0
2016-Apr-27 18:18N 28°58' W 013°32'0 0.0
2016-Apr-27 17:27N 28°58' W 013°32'0 0.0
2016-Apr-27 16:30N 28°58' W 013°32'0 0.0
2016-Apr-27 15:30N 28°58' W 013°32'0 0.0
2016-Apr-27 14:30N 28°58' W 013°32'0 0.0
2016-Apr-27 13:18N 28°58' W 013°32'0 0.0
2016-Apr-27 12:30N 28°58' W 013°32'2 2.6
2016-Apr-27 11:33N 28°56' W 013°33'1615.6
2016-Apr-27 10:33N 28°49' W 013°49'1615.3
2016-Apr-27 09:29N 28°47' W 014°08'1415.5
2016-Apr-27 08:33N 28°45' W 014°24'1515.4
2016-Apr-27 07:33N 28°44' W 014°41'1515.3
2016-Apr-27 06:33N 28°43' W 014°59'1515.3
2016-Apr-27 05:33N 28°41' W 015°16'1515.2
2016-Apr-27 04:33N 28°39' W 015°33'1515.2
2016-Apr-27 03:33N 28°37' W 015°50'1515.1
2016-Apr-27 02:33N 28°30' W 016°06'7 4.8
2016-Apr-27 01:09N 28°29' W 016°13'0 0.0
2016-Apr-26 23:12N 28°29' W 016°13'0 0.0
2016-Apr-26 22:32N 28°29' W 016°13'3 3.2
2016-Apr-26 21:33N 28°28' W 016°11'4 3.7
2016-Apr-26 20:33N 28°27' W 016°06'1 1.3
2016-Apr-26 19:34N 28°27' W 016°07'2 1.9
2016-Apr-26 18:33N 28°28' W 016°10'3 2.6
2016-Apr-26 17:28N 28°28' W 016°13'1 0.8
2016-Apr-26 16:32N 28°28' W 016°12'4 4.5
2016-Apr-26 15:34N 28°27' W 016°07'1414.5
2016-Apr-26 14:33N 28°21' W 015°52'1515.1
2016-Apr-26 13:33N 28°16' W 015°36'1413.6
2016-Apr-26 12:33N 28°08' W 015°23'2 1.7
2016-Apr-26 11:31N 28°08' W 015°25'0 0.0
2016-Apr-26 10:31N 28°08' W 015°25'0 0.0
2016-Apr-26 09:31N 28°08' W 015°25'0 0.0
2016-Apr-26 08:31N 28°08' W 015°25'0 0.0
2016-Apr-26 07:31N 28°08' W 015°25'0 0.0
2016-Apr-26 06:16N 28°08' W 015°25'0 0.7
2016-Apr-26 05:33N 28°08' W 015°25'1111.1
2016-Apr-26 04:34N 28°16' W 015°17'1615.6
2016-Apr-26 03:34N 28°30' W 015°10'1615.7
2016-Apr-26 02:34N 28°45' W 015°04'1615.6
2016-Apr-26 01:34N 28°59' W 014°57'1615.7
2016-Apr-26 00:33N 29°14' W 014°49'1615.9
2016-Apr-25 23:32N 29°29' W 014°42'1615.3
2016-Apr-25 22:30N 29°41' W 014°31'1715.6
2016-Apr-25 21:26N 29°52' W 014°17'57016.8
2016-Apr-24 11:33N 35°58' W 005°35'  
Track history (hours):
 
Tides and Currents Weather Stations Pressure Air Temp Water Temp Dewpoint Dewpoint Depression Visibility Wind Speed Wind Dir Waves Ship Positions

Neuburg

Last reported at 2016-May-04 11:31 UTC. Time now 2016-May-04 11:43 UTC.
Position N 44°24' E 008°53'.

Length 142 m; draft 5.5 m.

Type: Cargo ship. MMSI: 212740000.

Date/timePositionNaut miles runAvg speedWind from/ knotsBaromVisibWave heightAir tempDewpointWater temp
2016-May-04 11:31N 44°24' E 008°53'0 0.2
2016-May-04 10:33N 44°24' E 008°53'8 7.9
2016-May-04 09:33N 44°16' E 008°53'1717.2
2016-May-04 08:33N 44°05' E 008°36'1616.4
2016-May-04 07:34N 43°53' E 008°19'3216.1
2016-May-04 05:33N 43°34' E 007°43'1716.7
2016-May-04 04:33N 43°24' E 007°25'1717.0
2016-May-04 03:31N 43°14' E 007°05'18315.3
2016-May-03 15:33N 41°58' E 003°19'1716.6
2016-May-03 14:33N 41°42' E 003°10'3717.8
2016-May-03 12:28N 41°24' E 002°27'1414.5
2016-May-03 11:31N 41°19' E 002°10'3 2.9
2016-May-03 10:33N 41°21' E 002°10'0 0.0
2016-May-03 09:23N 41°21' E 002°10'0 0.0
2016-May-03 08:33N 41°21' E 002°10'0 0.0
2016-May-03 07:33N 41°21' E 002°10'3 1.0
2016-May-03 04:23N 41°18' E 002°11'1113.1
2016-May-03 03:33N 41°08' E 002°06'1515.4
2016-May-03 02:33N 40°54' E 001°56'1515.5
2016-May-03 01:33N 40°40' E 001°47'1514.9
2016-May-03 00:33N 40°27' E 001°38'1615.6
2016-May-02 23:33N 40°13' E 001°29'1615.6
2016-May-02 22:33N 39°60' E 001°19'6615.4
2016-May-02 18:15N 39°01' E 000°40'6714.2
2016-May-02 13:33N 38°19' W 000°26'6 0.6
2016-May-02 04:33N 38°13' W 000°25'1514.8
2016-May-02 03:33N 37°58' W 000°25'1615.7
2016-May-02 02:33N 37°43' W 000°29'1515.0
2016-May-02 01:33N 37°29' W 000°36'1615.7
2016-May-02 00:33N 37°18' W 000°50'22516.0
2016-May-01 10:29N 35°59' W 005°12'65016.1
2016-Apr-29 18:12N 29°11' W 015°12'1116.7
2016-Apr-29 17:31N 29°03' W 015°22'1617.0
2016-Apr-29 16:33N 28°53' W 015°36'1717.0
2016-Apr-29 15:33N 28°42' W 015°51'1716.7
2016-Apr-29 14:33N 28°31' W 016°05'8 1.8
2016-Apr-29 10:18N 28°29' W 016°13'0 0.0
2016-Apr-29 09:06N 28°29' W 016°13'0 0.0
2016-Apr-29 08:33N 28°29' W 016°13'0 0.0
2016-Apr-28 23:11N 28°29' W 016°13'5 7.4
2016-Apr-28 22:33N 28°27' W 016°09'1615.6
2016-Apr-28 21:33N 28°22' W 015°52'1616.1
2016-Apr-28 20:33N 28°16' W 015°35'1313.4
2016-Apr-28 19:33N 28°07' W 015°24'2 1.5
2016-Apr-28 18:32N 28°08' W 015°25'0 0.0
2016-Apr-28 17:32N 28°08' W 015°25'0 0.0
2016-Apr-28 16:32N 28°08' W 015°25'0 0.0
2016-Apr-28 15:31N 28°08' W 015°25'0 0.0
2016-Apr-28 14:31N 28°08' W 015°25'83 5.1
2016-Apr-27 22:14N 28°46' W 014°01'1012.6
2016-Apr-27 21:27N 28°49' W 013°50'1112.6
2016-Apr-27 20:34N 28°53' W 013°38'7 7.0
2016-Apr-27 19:30N 28°58' W 013°32'0 0.0
2016-Apr-27 18:18N 28°58' W 013°32'0 0.0
2016-Apr-27 17:27N 28°58' W 013°32'0 0.0
2016-Apr-27 16:30N 28°58' W 013°32'0 0.0
2016-Apr-27 15:30N 28°58' W 013°32'0 0.0
2016-Apr-27 14:30N 28°58' W 013°32'0 0.0
2016-Apr-27 13:18N 28°58' W 013°32'0 0.0
2016-Apr-27 12:30N 28°58' W 013°32'2 2.6
2016-Apr-27 11:33N 28°56' W 013°33'1615.6
2016-Apr-27 10:33N 28°49' W 013°49'1615.3
2016-Apr-27 09:29N 28°47' W 014°08'1415.5
2016-Apr-27 08:33N 28°45' W 014°24'1515.4
2016-Apr-27 07:33N 28°44' W 014°41'1515.3
2016-Apr-27 06:33N 28°43' W 014°59'1515.3
2016-Apr-27 05:33N 28°41' W 015°16'1515.2
2016-Apr-27 04:33N 28°39' W 015°33'1515.2
2016-Apr-27 03:33N 28°37' W 015°50'1515.1
2016-Apr-27 02:33N 28°30' W 016°06'7 4.8
2016-Apr-27 01:09N 28°29' W 016°13'0 0.0
2016-Apr-26 23:12N 28°29' W 016°13'0 0.0
2016-Apr-26 22:32N 28°29' W 016°13'3 3.2
2016-Apr-26 21:33N 28°28' W 016°11'4 3.7
2016-Apr-26 20:33N 28°27' W 016°06'1 1.3
2016-Apr-26 19:34N 28°27' W 016°07'2 1.9
2016-Apr-26 18:33N 28°28' W 016°10'3 2.6
2016-Apr-26 17:28N 28°28' W 016°13'1 0.8
2016-Apr-26 16:32N 28°28' W 016°12'4 4.5
2016-Apr-26 15:34N 28°27' W 016°07'1414.5
2016-Apr-26 14:33N 28°21' W 015°52'1515.1
2016-Apr-26 13:33N 28°16' W 015°36'1413.6
2016-Apr-26 12:33N 28°08' W 015°23'2 1.7
2016-Apr-26 11:31N 28°08' W 015°25'0 0.0
2016-Apr-26 10:31N 28°08' W 015°25'0 0.0
2016-Apr-26 09:31N 28°08' W 015°25'0 0.0
2016-Apr-26 08:31N 28°08' W 015°25'0 0.0
2016-Apr-26 07:31N 28°08' W 015°25'0 0.0
2016-Apr-26 06:16N 28°08' W 015°25'0 0.7
2016-Apr-26 05:33N 28°08' W 015°25'1111.1
2016-Apr-26 04:34N 28°16' W 015°17'1615.6
2016-Apr-26 03:34N 28°30' W 015°10'1615.7
2016-Apr-26 02:34N 28°45' W 015°04'1615.6
2016-Apr-26 01:34N 28°59' W 014°57'1615.7
2016-Apr-26 00:33N 29°14' W 014°49'1615.9
2016-Apr-25 23:32N 29°29' W 014°42'1615.3
2016-Apr-25 22:30N 29°41' W 014°31'1715.6
2016-Apr-25 21:26N 29°52' W 014°17'57016.8
2016-Apr-24 11:33N 35°58' W 005°35'  

Dump ship's entire track history